createdAt,value
2023-04-20T00:00:29.732Z,26.49
2023-04-20T00:01:29.765Z,26.51
2023-04-20T00:02:29.974Z,26.51
2023-04-20T00:03:29.985Z,26.51
2023-04-20T00:04:29.896Z,26.48
2023-04-20T00:05:29.994Z,26.51
2023-04-20T00:06:30.001Z,26.52
2023-04-20T00:07:30.045Z,26.49
2023-04-20T00:08:30.048Z,26.51
2023-04-20T00:09:30.088Z,26.52
2023-04-20T00:10:30.138Z,26.52
2023-04-20T00:11:30.153Z,26.52
2023-04-20T00:12:30.188Z,26.49
2023-04-20T00:13:30.218Z,26.51
2023-04-20T00:14:30.283Z,26.51
2023-04-20T00:15:30.309Z,26.52
2023-04-20T00:16:30.381Z,26.52
2023-04-20T00:17:30.475Z,26.51
2023-04-20T00:18:30.447Z,26.49
2023-04-20T00:19:30.478Z,26.51
2023-04-20T00:20:30.530Z,26.52
2023-04-20T00:21:30.568Z,26.51
2023-04-20T00:22:30.600Z,26.52
2023-04-20T00:23:30.662Z,26.51
2023-04-20T00:24:30.690Z,26.51
2023-04-20T00:25:30.750Z,26.51
2023-04-20T00:26:30.765Z,26.51
2023-04-20T00:27:30.795Z,26.51
2023-04-20T00:28:30.860Z,26.49
2023-04-20T00:29:30.894Z,26.51
2023-04-20T00:30:30.941Z,26.49
2023-04-20T00:31:31.094Z,26.51
2023-04-20T00:32:31.033Z,26.51
2023-04-20T00:33:31.032Z,26.47
2023-04-20T00:34:31.055Z,26.49
2023-04-20T00:35:31.088Z,26.49
2023-04-20T00:36:31.127Z,26.49
2023-04-20T00:37:31.110Z,26.52
2023-04-20T00:38:31.168Z,26.48
2023-04-20T00:39:31.219Z,26.52
2023-04-20T00:40:31.265Z,26.49
2023-04-20T00:41:31.307Z,26.49
2023-04-20T00:42:31.349Z,26.49
2023-04-20T00:43:31.383Z,26.51
2023-04-20T00:44:31.431Z,26.49
2023-04-20T00:45:31.497Z,26.49
2023-04-20T00:46:31.588Z,26.48
2023-04-20T00:47:31.606Z,26.48
2023-04-20T00:48:31.627Z,26.49
2023-04-20T00:49:31.657Z,26.51
2023-04-20T00:50:31.683Z,26.51
2023-04-20T00:51:31.724Z,26.51
2023-04-20T00:52:31.776Z,26.48
2023-04-20T00:53:31.811Z,26.49
2023-04-20T00:54:31.842Z,26.49
2023-04-20T00:55:31.874Z,26.49
2023-04-20T00:56:31.926Z,26.49
2023-04-20T00:57:31.967Z,26.51
2023-04-20T00:58:32.028Z,26.49
2023-04-20T00:59:32.044Z,26.48
2023-04-20T01:00:32.096Z,26.49
2023-04-20T01:01:32.233Z,26.48
2023-04-20T01:02:32.333Z,26.51
2023-04-20T01:03:32.404Z,26.52
2023-04-20T01:04:32.335Z,26.48
2023-04-20T01:05:32.310Z,26.49
2023-04-20T01:06:32.344Z,26.51
2023-04-20T01:07:32.358Z,26.47
2023-04-20T01:08:32.383Z,26.49
2023-04-20T01:09:32.386Z,26.51
2023-04-20T01:10:32.433Z,26.49
2023-04-20T01:11:32.431Z,26.51
2023-04-20T01:12:32.478Z,26.49
2023-04-20T01:13:32.518Z,26.49
2023-04-20T01:14:32.548Z,26.47
2023-04-20T01:15:32.644Z,26.49
2023-04-20T01:16:32.642Z,26.49
2023-04-20T01:17:32.664Z,26.51
2023-04-20T01:18:32.699Z,26.48
2023-04-20T01:19:32.755Z,26.49
2023-04-20T01:20:32.753Z,26.49
2023-04-20T01:21:32.786Z,26.49
2023-04-20T01:22:32.795Z,26.51
2023-04-20T01:23:32.847Z,26.48
2023-04-20T01:24:32.839Z,26.48
2023-04-20T01:25:32.858Z,26.49
2023-04-20T01:26:32.883Z,26.49
2023-04-20T01:27:32.916Z,26.47
2023-04-20T01:28:32.935Z,26.49
2023-04-20T01:29:32.942Z,26.48
2023-04-20T01:30:32.967Z,26.45
2023-04-20T01:31:33.040Z,26.48
2023-04-20T01:32:33.035Z,26.48
2023-04-20T01:33:33.065Z,26.47
2023-04-20T01:34:33.056Z,26.48
2023-04-20T01:35:33.110Z,26.47
2023-04-20T01:36:33.136Z,26.48
2023-04-20T01:37:33.114Z,26.49
2023-04-20T01:38:33.158Z,26.48
2023-04-20T01:39:33.237Z,26.48
2023-04-20T01:40:33.189Z,26.48
2023-04-20T01:41:33.256Z,26.48
2023-04-20T01:42:33.263Z,26.48
2023-04-20T01:43:33.296Z,26.48
2023-04-20T01:44:33.300Z,26.48
2023-04-20T01:45:33.336Z,26.49
2023-04-20T01:46:33.411Z,26.49
2023-04-20T01:47:33.509Z,26.47
2023-04-20T01:48:33.497Z,26.48
2023-04-20T01:49:33.493Z,26.48
2023-04-20T01:50:33.541Z,26.49
2023-04-20T01:51:33.556Z,26.49
2023-04-20T01:52:33.580Z,26.49
2023-04-20T01:53:33.603Z,26.49
2023-04-20T01:54:33.646Z,26.47
2023-04-20T01:55:33.648Z,26.47
2023-04-20T01:56:33.681Z,26.49
2023-04-20T01:57:33.715Z,26.48
2023-04-20T01:58:33.759Z,26.48
2023-04-20T01:59:33.769Z,26.49
2023-04-20T02:00:33.784Z,26.47
2023-04-20T02:01:33.828Z,26.48
2023-04-20T02:02:33.998Z,26.49
2023-04-20T02:03:34.087Z,26.48
2023-04-20T02:04:33.953Z,26.48
2023-04-20T02:05:34.001Z,26.48
2023-04-20T02:06:34.038Z,26.48
2023-04-20T02:07:34.072Z,26.51
2023-04-20T02:08:34.141Z,26.48
2023-04-20T02:09:34.173Z,26.48
2023-04-20T02:10:34.232Z,26.47
2023-04-20T02:11:34.268Z,26.48
2023-04-20T02:12:34.301Z,26.48
2023-04-20T02:13:34.364Z,26.47
2023-04-20T02:14:34.389Z,26.45
2023-04-20T02:15:34.431Z,26.48
2023-04-20T02:16:34.585Z,26.49
2023-04-20T02:17:34.533Z,26.48
2023-04-20T02:18:34.499Z,26.48
2023-04-20T02:19:34.551Z,26.47
2023-04-20T02:20:34.599Z,26.45
2023-04-20T02:21:34.631Z,26.48
2023-04-20T02:22:34.633Z,26.47
2023-04-20T02:23:34.666Z,26.49
2023-04-20T02:24:34.682Z,26.47
2023-04-20T02:25:34.726Z,26.47
2023-04-20T02:26:34.776Z,26.48
2023-04-20T02:27:34.821Z,26.47
2023-04-20T02:28:34.869Z,26.48
2023-04-20T02:29:34.907Z,26.49
2023-04-20T02:30:34.951Z,26.47
2023-04-20T02:31:35.031Z,26.47
2023-04-20T02:32:35.157Z,26.48
2023-04-20T02:33:35.066Z,26.47
2023-04-20T02:34:35.097Z,26.48
2023-04-20T02:35:35.112Z,26.47
2023-04-20T02:36:35.164Z,26.47
2023-04-20T02:37:35.167Z,26.49
2023-04-20T02:38:35.229Z,26.47
2023-04-20T02:39:35.244Z,26.48
2023-04-20T02:40:35.287Z,26.49
2023-04-20T02:41:35.329Z,26.49
2023-04-20T02:42:35.353Z,26.48
2023-04-20T02:43:35.385Z,26.49
2023-04-20T02:44:35.399Z,26.49
2023-04-20T02:45:35.437Z,26.47
2023-04-20T02:46:35.524Z,26.45
2023-04-20T02:47:35.526Z,26.47
2023-04-20T02:48:35.553Z,26.48
2023-04-20T02:49:35.572Z,26.45
2023-04-20T02:50:35.600Z,26.48
2023-04-20T02:51:35.623Z,26.48
2023-04-20T02:52:35.684Z,26.48
2023-04-20T02:53:35.719Z,26.44
2023-04-20T02:54:35.771Z,26.44
2023-04-20T02:55:35.814Z,26.45
2023-04-20T02:56:35.867Z,26.48
2023-04-20T02:57:35.889Z,26.47
2023-04-20T02:58:35.913Z,26.45
2023-04-20T02:59:35.947Z,26.44
2023-04-20T03:00:35.995Z,26.47
2023-04-20T03:01:36.052Z,26.49
2023-04-20T03:02:36.241Z,26.47
2023-04-20T03:03:36.265Z,26.45
2023-04-20T03:04:36.211Z,26.48
2023-04-20T03:05:36.199Z,26.48
2023-04-20T03:06:36.252Z,26.45
2023-04-20T03:07:36.227Z,26.45
2023-04-20T03:08:36.241Z,26.47
2023-04-20T03:09:36.285Z,26.48
2023-04-20T03:10:36.291Z,26.48
2023-04-20T03:11:36.331Z,26.47
2023-04-20T03:12:36.338Z,26.48
2023-04-20T03:13:36.389Z,26.47
2023-04-20T03:14:36.422Z,26.47
2023-04-20T03:15:36.407Z,26.44
2023-04-20T03:16:36.508Z,26.45
2023-04-20T03:17:36.515Z,26.45
2023-04-20T03:18:36.514Z,26.47
2023-04-20T03:19:36.521Z,26.47
2023-04-20T03:20:36.535Z,26.47
2023-04-20T03:21:36.559Z,26.48
2023-04-20T03:22:36.593Z,26.49
2023-04-20T03:23:36.616Z,26.48
2023-04-20T03:24:36.650Z,26.44
2023-04-20T03:25:36.681Z,26.47
2023-04-20T03:26:36.696Z,26.48
2023-04-20T03:27:36.718Z,26.48
2023-04-20T03:28:36.761Z,26.48
2023-04-20T03:29:36.762Z,26.47
2023-04-20T03:30:36.784Z,26.47
2023-04-20T03:31:36.832Z,26.45
2023-04-20T03:32:36.890Z,26.48
2023-04-20T03:33:36.896Z,26.49
2023-04-20T03:34:36.912Z,26.48
2023-04-20T03:35:36.958Z,26.47
2023-04-20T03:36:37.009Z,26.48
2023-04-20T03:37:37.047Z,26.47
2023-04-20T03:38:37.084Z,26.47
2023-04-20T03:39:37.263Z,26.47
2023-04-20T03:40:37.153Z,26.47
2023-04-20T03:41:37.180Z,26.47
2023-04-20T03:42:37.193Z,26.47
2023-04-20T03:43:37.220Z,26.47
2023-04-20T03:44:37.250Z,26.47
2023-04-20T03:45:37.316Z,26.48
2023-04-20T03:46:37.305Z,26.48
2023-04-20T03:47:37.389Z,26.49
2023-04-20T03:48:37.393Z,26.48
2023-04-20T03:49:37.451Z,26.49
2023-04-20T03:50:37.465Z,26.48
2023-04-20T03:51:37.514Z,26.48
2023-04-20T03:52:37.578Z,26.45
2023-04-20T03:53:39.421Z,26.47
2023-04-20T03:54:37.663Z,26.47
2023-04-20T03:55:37.698Z,26.47
2023-04-20T03:56:37.741Z,26.48
2023-04-20T03:57:37.794Z,26.45
2023-04-20T03:58:37.842Z,26.47
2023-04-20T03:59:37.884Z,26.45
2023-04-20T04:00:37.896Z,26.47
2023-04-20T04:01:37.959Z,26.48
2023-04-20T04:02:38.509Z,26.48
2023-04-20T04:03:38.150Z,26.45
2023-04-20T04:04:38.136Z,26.49
2023-04-20T04:05:38.085Z,26.45
2023-04-20T04:06:38.120Z,26.45
2023-04-20T04:07:38.117Z,26.47
2023-04-20T04:08:38.143Z,26.47
2023-04-20T04:09:38.153Z,26.49
2023-04-20T04:10:38.185Z,26.48
2023-04-20T04:11:38.207Z,26.48
2023-04-20T04:12:38.224Z,26.47
2023-04-20T04:13:38.248Z,26.47
2023-04-20T04:14:38.280Z,26.47
2023-04-20T04:15:38.320Z,26.48
2023-04-20T04:16:38.381Z,26.45
2023-04-20T04:17:38.452Z,26.45
2023-04-20T04:18:38.458Z,26.47
2023-04-20T04:19:38.461Z,26.45
2023-04-20T04:20:38.529Z,26.47
2023-04-20T04:21:38.541Z,26.45
2023-04-20T04:22:38.587Z,26.47
2023-04-20T04:23:38.646Z,26.47
2023-04-20T04:24:38.671Z,26.47
2023-04-20T04:25:38.717Z,26.49
2023-04-20T04:26:38.754Z,26.47
2023-04-20T04:27:38.797Z,26.45
2023-04-20T04:28:38.851Z,26.45
2023-04-20T04:29:38.900Z,26.47
2023-04-20T04:30:38.895Z,26.48
2023-04-20T04:31:39.012Z,26.48
2023-04-20T04:32:39.016Z,26.47
2023-04-20T04:33:39.013Z,26.45
2023-04-20T04:34:39.043Z,26.47
2023-04-20T04:35:39.147Z,26.47
2023-04-20T04:36:39.087Z,26.45
2023-04-20T04:37:39.140Z,26.47
2023-04-20T04:38:39.181Z,26.48
2023-04-20T04:39:39.191Z,26.47
2023-04-20T04:40:39.214Z,26.47
2023-04-20T04:41:39.234Z,26.45
2023-04-20T04:42:39.246Z,26.47
2023-04-20T04:43:39.257Z,26.45
2023-04-20T04:44:39.305Z,26.45
2023-04-20T04:45:39.325Z,26.47
2023-04-20T04:46:39.398Z,26.47
2023-04-20T04:47:39.389Z,26.47
2023-04-20T04:48:39.386Z,26.47
2023-04-20T04:49:39.417Z,26.49
2023-04-20T04:50:39.439Z,26.47
2023-04-20T04:51:39.496Z,26.47
2023-04-20T04:52:39.527Z,26.47
2023-04-20T04:53:39.588Z,26.47
2023-04-20T04:54:39.612Z,26.47
2023-04-20T04:55:39.668Z,26.44
2023-04-20T04:56:39.704Z,26.47
2023-04-20T04:57:39.729Z,26.47
2023-04-20T04:58:39.738Z,26.47
2023-04-20T04:59:39.788Z,26.47
2023-04-20T05:00:39.833Z,26.49
2023-04-20T05:01:39.926Z,26.48
2023-04-20T05:02:40.296Z,26.48
2023-04-20T05:03:39.950Z,26.47
2023-04-20T05:04:39.990Z,26.49
2023-04-20T05:05:39.931Z,26.47
2023-04-20T05:06:39.932Z,26.45
2023-04-20T05:07:39.986Z,26.47
2023-04-20T05:08:39.983Z,26.48
2023-04-20T05:09:39.995Z,26.45
2023-04-20T05:10:40.043Z,26.48
2023-04-20T05:11:40.056Z,26.47
2023-04-20T05:12:40.085Z,26.47
2023-04-20T05:13:40.133Z,26.47
2023-04-20T05:14:40.149Z,26.48
2023-04-20T05:15:41.271Z,26.48
2023-04-20T05:16:40.309Z,26.48
2023-04-20T05:17:40.327Z,26.48
2023-04-20T05:18:40.513Z,26.47
2023-04-20T05:19:40.356Z,26.47
2023-04-20T05:20:40.408Z,26.48
2023-04-20T05:21:40.453Z,26.51
2023-04-20T05:22:40.494Z,26.51
2023-04-20T05:23:40.502Z,26.49
2023-04-20T05:24:40.515Z,26.52
2023-04-20T05:25:40.574Z,26.51
2023-04-20T05:26:40.619Z,26.54
2023-04-20T05:27:40.655Z,26.52
2023-04-20T05:28:40.688Z,26.54
2023-04-20T05:29:40.767Z,26.55
2023-04-20T05:30:40.798Z,26.54
2023-04-20T05:31:40.888Z,26.49
2023-04-20T05:32:40.840Z,26.51
2023-04-20T05:33:40.846Z,26.51
2023-04-20T05:34:40.881Z,26.49
2023-04-20T05:35:40.958Z,26.47
2023-04-20T05:36:40.957Z,26.49
2023-04-20T05:37:41.004Z,26.54
2023-04-20T05:38:41.045Z,26.58
2023-04-20T05:39:41.101Z,26.62
2023-04-20T05:40:41.125Z,26.48
2023-04-20T05:41:41.128Z,26.51
2023-04-20T05:42:41.121Z,26.61
2023-04-20T05:43:41.249Z,26.65
2023-04-20T05:44:41.187Z,26.72
2023-04-20T05:45:41.277Z,26.77
2023-04-20T05:46:41.248Z,26.82
2023-04-20T05:47:41.423Z,26.89
2023-04-20T05:48:41.306Z,26.92
2023-04-20T05:49:41.348Z,27.00
2023-04-20T05:50:41.394Z,27.07
2023-04-20T05:51:41.436Z,27.09
2023-04-20T05:52:41.401Z,27.13
2023-04-20T05:53:41.475Z,27.19
2023-04-20T05:54:41.496Z,27.23
2023-04-20T05:55:41.514Z,27.25
2023-04-20T05:56:41.548Z,27.27
2023-04-20T05:57:41.566Z,27.34
2023-04-20T05:58:41.604Z,27.36
2023-04-20T05:59:41.630Z,27.34
2023-04-20T06:00:41.709Z,27.40
2023-04-20T06:01:41.677Z,27.49
2023-04-20T06:02:41.821Z,27.49
2023-04-20T06:03:42.029Z,27.50
2023-04-20T06:04:41.854Z,27.53
2023-04-20T06:05:41.845Z,27.54
2023-04-20T06:06:41.812Z,27.54
2023-04-20T06:07:41.882Z,27.64
2023-04-20T06:08:41.942Z,27.64
2023-04-20T06:09:41.907Z,27.64
2023-04-20T06:10:41.981Z,27.72
2023-04-20T06:11:42.005Z,27.75
2023-04-20T06:12:42.043Z,27.67
2023-04-20T06:13:42.104Z,27.71
2023-04-20T06:14:42.152Z,27.75
2023-04-20T06:15:42.181Z,27.75
2023-04-20T06:16:42.194Z,27.77
2023-04-20T06:17:42.351Z,27.84
2023-04-20T06:18:42.300Z,27.84
2023-04-20T06:19:42.367Z,27.84
2023-04-20T06:20:42.334Z,27.88
2023-04-20T06:21:42.374Z,27.83
2023-04-20T06:22:42.391Z,27.85
2023-04-20T06:23:42.543Z,27.87
2023-04-20T06:24:42.489Z,27.83
2023-04-20T06:25:42.501Z,27.91
2023-04-20T06:26:42.509Z,27.85
2023-04-20T06:27:42.568Z,27.88
2023-04-20T06:28:42.573Z,27.95
2023-04-20T06:29:42.641Z,27.95
2023-04-20T06:30:42.665Z,27.94
2023-04-20T06:31:42.780Z,27.98
2023-04-20T06:32:42.772Z,27.99
2023-04-20T06:33:43.045Z,27.87
2023-04-20T06:34:42.790Z,27.85
2023-04-20T06:35:42.813Z,27.83
2023-04-20T06:36:42.859Z,27.80
2023-04-20T06:37:42.901Z,27.83
2023-04-20T06:38:43.036Z,27.83
2023-04-20T06:39:42.886Z,27.85
2023-04-20T06:40:42.953Z,27.87
2023-04-20T06:41:43.012Z,27.83
2023-04-20T06:42:43.106Z,27.88
2023-04-20T06:43:43.070Z,27.85
2023-04-20T06:44:43.088Z,27.85
2023-04-20T06:45:43.149Z,27.83
2023-04-20T06:46:43.234Z,27.80
2023-04-20T06:47:43.181Z,27.81
2023-04-20T06:48:43.546Z,27.78
2023-04-20T06:49:43.197Z,27.77
2023-04-20T06:50:43.204Z,27.75
2023-04-20T06:51:43.204Z,27.74
2023-04-20T06:52:43.229Z,27.74
2023-04-20T06:53:43.245Z,27.71
2023-04-20T06:54:43.256Z,27.70
2023-04-20T06:55:43.261Z,27.68
2023-04-20T06:56:43.283Z,27.67
2023-04-20T06:57:43.319Z,27.67
2023-04-20T06:58:43.398Z,27.62
2023-04-20T06:59:43.436Z,27.62
2023-04-20T07:00:43.474Z,27.62
2023-04-20T07:01:43.531Z,27.61
2023-04-20T07:02:43.601Z,27.58
2023-04-20T07:03:43.597Z,27.58
2023-04-20T07:04:43.598Z,27.54
2023-04-20T07:05:43.572Z,27.54
2023-04-20T07:06:43.584Z,27.54
2023-04-20T07:07:43.629Z,27.51
2023-04-20T07:08:43.662Z,27.49
2023-04-20T07:09:43.752Z,27.46
2023-04-20T07:10:43.799Z,27.43
2023-04-20T07:11:43.806Z,27.43
2023-04-20T07:12:44.174Z,27.43
2023-04-20T07:13:43.885Z,27.40
2023-04-20T07:14:43.947Z,27.39
2023-04-20T07:15:43.957Z,27.34
2023-04-20T07:16:44.083Z,27.26
2023-04-20T07:17:44.044Z,27.30
2023-04-20T07:18:44.552Z,27.27
2023-04-20T07:19:44.120Z,27.26
2023-04-20T07:20:44.150Z,27.27
2023-04-20T07:21:44.160Z,27.26
2023-04-20T07:22:44.171Z,27.23
2023-04-20T07:23:45.181Z,27.25
2023-04-20T07:24:44.241Z,27.23
2023-04-20T07:25:44.307Z,27.17
2023-04-20T07:26:44.341Z,27.07
2023-04-20T07:27:44.391Z,26.75
2023-04-20T07:28:44.572Z,26.01
2023-04-20T07:29:44.430Z,25.77
2023-04-20T07:30:44.495Z,25.70
2023-04-20T07:31:44.547Z,25.69
2023-04-20T07:32:44.561Z,25.72
2023-04-20T07:33:45.063Z,25.79
2023-04-20T07:34:44.599Z,25.87
2023-04-20T07:35:44.643Z,25.96
2023-04-20T07:36:44.658Z,26.03
2023-04-20T07:37:44.673Z,26.19
2023-04-20T07:38:45.180Z,26.28
2023-04-20T07:39:44.757Z,26.38
2023-04-20T07:40:44.793Z,26.49
2023-04-20T07:41:44.823Z,26.59
2023-04-20T07:42:44.848Z,26.67
2023-04-20T07:43:45.118Z,26.82
2023-04-20T07:44:45.094Z,26.88
2023-04-20T07:45:45.006Z,26.98
2023-04-20T07:46:45.012Z,27.07
2023-04-20T07:47:45.098Z,27.11
2023-04-20T07:48:45.098Z,27.19
2023-04-20T07:49:45.077Z,27.30
2023-04-20T07:50:45.087Z,27.36
2023-04-20T07:51:45.109Z,27.43
2023-04-20T07:52:45.154Z,27.53
2023-04-20T07:53:45.638Z,27.56
2023-04-20T07:54:45.655Z,27.58
2023-04-20T07:55:45.701Z,27.60
2023-04-20T07:56:45.312Z,27.67
2023-04-20T07:57:45.330Z,27.72
2023-04-20T07:58:45.367Z,27.81
2023-04-20T07:59:45.376Z,27.81
2023-04-20T08:00:45.430Z,27.85
2023-04-20T08:01:45.447Z,27.89
2023-04-20T08:02:45.671Z,27.98
2023-04-20T08:03:45.816Z,28.02
2023-04-20T08:04:45.775Z,28.04
2023-04-20T08:05:45.654Z,28.05
2023-04-20T08:06:45.619Z,28.09
2023-04-20T08:07:45.629Z,28.12
2023-04-20T08:08:45.641Z,28.09
2023-04-20T08:09:45.850Z,28.15
2023-04-20T08:10:45.776Z,28.15
2023-04-20T08:11:45.905Z,28.19
2023-04-20T08:12:45.753Z,28.25
2023-04-20T08:13:45.813Z,28.30
2023-04-20T08:14:45.821Z,28.30
2023-04-20T08:15:45.886Z,28.29
2023-04-20T08:16:45.920Z,28.35
2023-04-20T08:17:45.998Z,28.34
2023-04-20T08:18:46.006Z,28.22
2023-04-20T08:19:46.310Z,28.36
2023-04-20T08:20:46.056Z,28.40
2023-04-20T08:21:46.147Z,28.32
2023-04-20T08:22:46.084Z,28.16
2023-04-20T08:23:46.614Z,28.25
2023-04-20T08:24:46.618Z,28.22
2023-04-20T08:25:46.169Z,28.18
2023-04-20T08:26:46.206Z,28.22
2023-04-20T08:27:46.266Z,28.29
2023-04-20T08:28:46.375Z,28.32
2023-04-20T08:29:46.612Z,28.25
2023-04-20T08:30:46.378Z,28.28
2023-04-20T08:31:46.685Z,28.30
2023-04-20T08:32:46.542Z,28.36
2023-04-20T08:33:46.680Z,28.28
2023-04-20T08:34:46.593Z,28.26
2023-04-20T08:35:46.632Z,28.11
2023-04-20T08:36:46.699Z,28.09
2023-04-20T08:37:46.676Z,28.19
2023-04-20T08:38:46.715Z,28.26
2023-04-20T08:39:46.747Z,28.22
2023-04-20T08:40:46.798Z,28.19
2023-04-20T08:41:46.800Z,28.13
2023-04-20T08:42:46.867Z,28.08
2023-04-20T08:43:46.936Z,28.01
2023-04-20T08:44:47.013Z,27.95
2023-04-20T08:45:46.884Z,27.89
2023-04-20T08:46:46.940Z,27.83
2023-04-20T08:47:46.995Z,27.80
2023-04-20T08:48:47.014Z,27.75
2023-04-20T08:49:47.008Z,27.72
2023-04-20T08:50:47.051Z,27.70
2023-04-20T08:51:47.074Z,27.68
2023-04-20T08:52:47.108Z,27.56
2023-04-20T08:53:47.162Z,27.56
2023-04-20T08:54:55.865Z,27.51
2023-04-20T08:55:48.121Z,27.50
2023-04-20T08:56:47.187Z,27.47
2023-04-20T08:57:47.126Z,27.47
2023-04-20T08:58:47.147Z,27.46
2023-04-20T08:59:47.116Z,27.44
2023-04-20T09:00:49.081Z,27.46
2023-04-20T09:01:47.262Z,27.49
2023-04-20T09:02:47.495Z,27.49
2023-04-20T09:03:47.490Z,27.50
2023-04-20T09:04:47.689Z,27.47
2023-04-20T09:05:47.380Z,27.44
2023-04-20T09:06:47.489Z,27.43
2023-04-20T09:07:47.453Z,27.41
2023-04-20T09:08:47.476Z,27.43
2023-04-20T09:09:47.522Z,27.37
2023-04-20T09:10:47.530Z,27.29
2023-04-20T09:11:47.575Z,27.25
2023-04-20T09:12:47.613Z,27.20
2023-04-20T09:13:47.678Z,27.16
2023-04-20T09:14:47.703Z,27.06
2023-04-20T09:15:47.730Z,27.03
2023-04-20T09:16:47.829Z,27.05
2023-04-20T09:17:47.809Z,26.92
2023-04-20T09:18:47.828Z,26.88
2023-04-20T09:19:48.091Z,26.85
2023-04-20T09:20:47.891Z,26.88
2023-04-20T09:21:47.948Z,26.88
2023-04-20T09:22:47.960Z,26.90
2023-04-20T09:23:48.080Z,26.93
2023-04-20T09:24:48.064Z,26.96
2023-04-20T09:25:48.199Z,26.96
2023-04-20T09:26:48.148Z,26.92
2023-04-20T09:27:48.166Z,26.88
2023-04-20T09:28:48.202Z,26.89
2023-04-20T09:29:48.626Z,26.88
2023-04-20T09:30:48.267Z,26.85
2023-04-20T09:31:48.523Z,26.79
2023-04-20T09:32:48.342Z,26.69
2023-04-20T09:33:48.341Z,26.62
2023-04-20T09:34:48.374Z,26.51
2023-04-20T09:35:48.370Z,26.40
2023-04-20T09:36:48.416Z,26.26
2023-04-20T09:37:48.455Z,26.08
2023-04-20T09:38:48.463Z,25.96
2023-04-20T09:39:48.601Z,25.73
2023-04-20T09:40:48.516Z,25.56
2023-04-20T09:41:48.551Z,25.36
2023-04-20T09:42:48.564Z,25.26
2023-04-20T09:43:48.567Z,25.17
2023-04-20T09:44:48.616Z,25.11
2023-04-20T09:45:48.657Z,25.04
2023-04-20T09:46:48.672Z,24.97
2023-04-20T09:47:48.859Z,24.95
2023-04-20T09:48:48.740Z,24.90
2023-04-20T09:49:49.317Z,24.71
2023-04-20T09:50:50.458Z,24.67
2023-04-20T09:51:49.001Z,24.68
2023-04-20T09:52:49.040Z,24.73
2023-04-20T09:53:50.259Z,24.81
2023-04-20T09:54:49.244Z,24.92
2023-04-20T09:55:49.117Z,25.02
2023-04-20T09:56:49.115Z,25.14
2023-04-20T09:57:49.232Z,25.25
2023-04-20T09:58:49.207Z,25.38
2023-04-20T09:59:50.319Z,25.49
2023-04-20T10:00:49.416Z,25.58
2023-04-20T10:01:49.320Z,25.66
2023-04-20T10:02:49.438Z,25.76
2023-04-20T10:03:49.573Z,25.86
2023-04-20T10:04:49.500Z,25.93
2023-04-20T10:05:51.162Z,26.04
2023-04-20T10:06:49.358Z,26.08
2023-04-20T10:07:49.354Z,26.16
2023-04-20T10:08:49.386Z,26.27
2023-04-20T10:09:49.321Z,26.32
2023-04-20T10:10:49.401Z,26.40
2023-04-20T10:11:53.984Z,26.47
2023-04-20T10:12:50.312Z,26.51
2023-04-20T10:13:49.339Z,26.56
2023-04-20T10:14:49.268Z,26.61
2023-04-20T10:15:49.335Z,26.68
2023-04-20T10:16:49.415Z,26.72
2023-04-20T10:17:49.367Z,26.78
2023-04-20T10:18:49.385Z,26.81
2023-04-20T10:19:49.618Z,26.83
2023-04-20T10:20:49.307Z,26.90
2023-04-20T10:21:49.254Z,26.92
2023-04-20T10:22:49.313Z,26.96
2023-04-20T10:23:49.364Z,26.98
2023-04-20T10:24:49.616Z,27.00
2023-04-20T10:25:49.265Z,27.05
2023-04-20T10:26:49.222Z,27.06
2023-04-20T10:27:49.334Z,27.09
2023-04-20T10:28:49.358Z,27.11
2023-04-20T10:29:49.400Z,27.16
2023-04-20T10:30:49.433Z,27.19
2023-04-20T10:31:49.372Z,27.19
2023-04-20T10:32:49.436Z,27.23
2023-04-20T10:33:49.446Z,27.23
2023-04-20T10:34:49.486Z,27.23
2023-04-20T10:35:49.594Z,27.26
2023-04-20T10:36:49.544Z,27.26
2023-04-20T10:37:49.605Z,27.25
2023-04-20T10:38:49.595Z,27.23
2023-04-20T10:39:49.648Z,27.25
2023-04-20T10:40:49.662Z,27.27
2023-04-20T10:41:49.743Z,27.30
2023-04-20T10:42:49.777Z,27.29
2023-04-20T10:43:49.883Z,27.30
2023-04-20T10:44:50.174Z,27.33
2023-04-20T10:45:49.892Z,27.33
2023-04-20T10:46:49.947Z,27.34
2023-04-20T10:47:49.962Z,27.37
2023-04-20T10:48:49.962Z,27.37
2023-04-20T10:49:50.017Z,27.40
2023-04-20T10:50:50.038Z,27.43
2023-04-20T10:51:50.162Z,27.44
2023-04-20T10:52:50.112Z,27.41
2023-04-20T10:53:50.161Z,27.41
2023-04-20T10:54:50.638Z,27.41
2023-04-20T10:55:50.230Z,27.43
2023-04-20T10:56:50.231Z,27.40
2023-04-20T10:57:50.285Z,27.41
2023-04-20T10:58:50.301Z,27.40
2023-04-20T10:59:50.345Z,27.39
2023-04-20T11:00:50.344Z,27.41
2023-04-20T11:01:50.409Z,27.39
2023-04-20T11:02:50.441Z,27.39
2023-04-20T11:03:50.497Z,27.39
2023-04-20T11:04:50.497Z,27.36
2023-04-20T11:05:50.485Z,27.37
2023-04-20T11:06:50.520Z,27.33
2023-04-20T11:07:50.634Z,27.34
2023-04-20T11:08:50.597Z,27.34
2023-04-20T11:09:50.624Z,27.34
2023-04-20T11:10:50.685Z,27.33
2023-04-20T11:11:50.727Z,27.32
2023-04-20T11:12:50.824Z,27.30
2023-04-20T11:13:50.771Z,27.32
2023-04-20T11:14:50.779Z,27.29
2023-04-20T11:15:50.826Z,27.27
2023-04-20T11:16:52.065Z,27.25
2023-04-20T11:17:50.888Z,27.26
2023-04-20T11:18:50.901Z,27.27
2023-04-20T11:19:51.144Z,27.25
2023-04-20T11:20:50.979Z,27.25
2023-04-20T11:21:51.017Z,27.26
2023-04-20T11:22:52.488Z,27.27
2023-04-20T11:23:51.030Z,27.27
2023-04-20T11:24:51.025Z,27.29
2023-04-20T11:25:51.027Z,27.30
2023-04-20T11:26:51.060Z,27.29
2023-04-20T11:27:50.997Z,27.26
2023-04-20T11:28:51.912Z,27.27
2023-04-20T11:29:51.174Z,27.29
2023-04-20T11:30:51.001Z,27.30
2023-04-20T11:31:51.047Z,27.32
2023-04-20T11:32:51.027Z,27.29
2023-04-20T11:33:51.012Z,27.29
2023-04-20T11:34:56.060Z,27.27
2023-04-20T11:35:51.956Z,27.30
2023-04-20T11:36:50.953Z,27.29
2023-04-20T11:37:50.925Z,27.29
2023-04-20T11:38:50.941Z,27.30
2023-04-20T11:39:51.169Z,27.30
2023-04-20T11:40:50.899Z,27.30
2023-04-20T11:41:50.906Z,27.30
2023-04-20T11:42:50.905Z,27.27
2023-04-20T11:43:50.893Z,27.30
2023-04-20T11:44:50.902Z,27.29
2023-04-20T11:45:50.979Z,27.30
2023-04-20T11:46:50.851Z,27.30
2023-04-20T11:47:50.853Z,27.33
2023-04-20T11:48:50.859Z,27.30
2023-04-20T11:49:50.836Z,27.26
2023-04-20T11:50:50.840Z,27.29
2023-04-20T11:51:50.871Z,27.32
2023-04-20T11:52:50.894Z,27.32
2023-04-20T11:53:51.668Z,27.30
2023-04-20T11:54:50.976Z,27.29
2023-04-20T11:55:51.004Z,27.30
2023-04-20T11:56:51.070Z,27.32
2023-04-20T11:57:51.096Z,27.33
2023-04-20T11:58:51.101Z,27.33
2023-04-20T11:59:51.147Z,27.30
2023-04-20T12:00:51.155Z,27.32
2023-04-20T12:01:51.199Z,27.32
2023-04-20T12:02:51.367Z,27.33
2023-04-20T12:03:51.522Z,27.33
2023-04-20T12:04:51.384Z,27.33
2023-04-20T12:05:51.418Z,27.34
2023-04-20T12:06:51.367Z,27.33
2023-04-20T12:07:51.384Z,27.34
2023-04-20T12:08:51.383Z,27.34
2023-04-20T12:09:51.435Z,27.36
2023-04-20T12:10:51.437Z,27.36
2023-04-20T12:11:51.583Z,27.34
2023-04-20T12:12:51.526Z,27.34
2023-04-20T12:13:51.539Z,27.34
2023-04-20T12:14:51.576Z,27.37
2023-04-20T12:15:51.616Z,27.37
2023-04-20T12:16:51.623Z,27.37
2023-04-20T12:17:51.661Z,27.36
2023-04-20T12:18:51.667Z,27.39
2023-04-20T12:19:51.713Z,27.36
2023-04-20T12:20:51.707Z,27.37
2023-04-20T12:21:51.740Z,27.36
2023-04-20T12:22:51.779Z,27.37
2023-04-20T12:23:51.845Z,27.39
2023-04-20T12:24:51.841Z,27.36
2023-04-20T12:25:51.851Z,27.39
2023-04-20T12:26:51.893Z,27.37
2023-04-20T12:27:51.938Z,27.41
2023-04-20T12:28:51.972Z,27.39
2023-04-20T12:29:52.040Z,27.40
2023-04-20T12:30:52.092Z,27.40
2023-04-20T12:31:52.158Z,27.40
2023-04-20T12:32:52.166Z,27.43
2023-04-20T12:33:52.167Z,27.40
2023-04-20T12:34:52.205Z,27.41
2023-04-20T12:35:52.216Z,27.44
2023-04-20T12:36:52.258Z,27.41
2023-04-20T12:37:52.268Z,27.44
2023-04-20T12:38:52.291Z,27.46
2023-04-20T12:39:52.328Z,27.46
2023-04-20T12:40:52.349Z,27.46
2023-04-20T12:41:52.357Z,27.46
2023-04-20T12:42:52.374Z,27.47
2023-04-20T12:43:52.383Z,27.47
2023-04-20T12:44:52.413Z,27.46
2023-04-20T12:45:52.465Z,27.49
2023-04-20T12:46:52.554Z,27.47
2023-04-20T12:47:55.393Z,27.49
2023-04-20T12:48:52.522Z,27.50
2023-04-20T12:49:52.538Z,27.49
2023-04-20T12:50:52.522Z,27.49
2023-04-20T12:51:52.503Z,27.50
2023-04-20T12:52:52.508Z,27.50